sensor_id;sensor_type;location;lat;lon;timestamp;P1;durP1;ratioP1;P2;durP2;ratioP2
43793;SDS011;29414;44.798;20.366;2022-10-12T00:01:19;88.00;;;72.78;;
43793;SDS011;29414;44.798;20.366;2022-10-12T00:05:19;94.07;;;76.57;;
43793;SDS011;29414;44.798;20.366;2022-10-12T00:09:20;94.50;;;75.38;;
43793;SDS011;29414;44.798;20.366;2022-10-12T00:13:20;97.03;;;76.78;;
43793;SDS011;29414;44.798;20.366;2022-10-12T00:17:20;94.05;;;77.03;;
43793;SDS011;29414;44.798;20.366;2022-10-12T00:21:21;102.32;;;78.75;;
43793;SDS011;29414;44.798;20.366;2022-10-12T00:25:21;95.93;;;73.65;;
43793;SDS011;29414;44.798;20.366;2022-10-12T00:29:22;122.13;;;88.00;;
43793;SDS011;29414;44.798;20.366;2022-10-12T00:33:22;109.20;;;80.60;;
43793;SDS011;29414;44.798;20.366;2022-10-12T00:37:23;102.07;;;80.03;;
43793;SDS011;29414;44.798;20.366;2022-10-12T00:41:24;112.50;;;85.38;;
43793;SDS011;29414;44.798;20.366;2022-10-12T00:45:25;127.78;;;89.85;;
43793;SDS011;29414;44.798;20.366;2022-10-12T00:49:25;126.50;;;90.90;;
43793;SDS011;29414;44.798;20.366;2022-10-12T00:53:27;112.22;;;86.07;;
43793;SDS011;29414;44.798;20.366;2022-10-12T00:57:30;100.03;;;79.70;;
43793;SDS011;29414;44.798;20.366;2022-10-12T01:01:31;98.78;;;78.47;;
43793;SDS011;29414;44.798;20.366;2022-10-12T01:05:32;121.40;;;87.45;;
43793;SDS011;29414;44.798;20.366;2022-10-12T01:09:32;115.65;;;87.05;;
43793;SDS011;29414;44.798;20.366;2022-10-12T01:13:33;114.72;;;86.85;;
43793;SDS011;29414;44.798;20.366;2022-10-12T01:22:00;116.82;;;88.22;;
43793;SDS011;29414;44.798;20.366;2022-10-12T01:30:04;114.58;;;84.98;;
43793;SDS011;29414;44.798;20.366;2022-10-12T01:34:08;113.70;;;86.53;;
43793;SDS011;29414;44.798;20.366;2022-10-12T01:38:29;128.63;;;87.95;;
43793;SDS011;29414;44.798;20.366;2022-10-12T01:42:36;114.80;;;84.55;;
43793;SDS011;29414;44.798;20.366;2022-10-12T01:46:38;132.07;;;91.80;;
43793;SDS011;29414;44.798;20.366;2022-10-12T01:50:44;121.05;;;86.15;;
43793;SDS011;29414;44.798;20.366;2022-10-12T02:03:13;150.45;;;98.38;;
43793;SDS011;29414;44.798;20.366;2022-10-12T02:07:31;146.35;;;100.57;;
43793;SDS011;29414;44.798;20.366;2022-10-12T02:11:36;143.48;;;95.28;;
43793;SDS011;29414;44.798;20.366;2022-10-12T02:15:37;178.38;;;103.35;;
43793;SDS011;29414;44.798;20.366;2022-10-12T02:19:40;140.80;;;96.10;;
43793;SDS011;29414;44.798;20.366;2022-10-12T02:23:40;152.88;;;98.93;;
43793;SDS011;29414;44.798;20.366;2022-10-12T02:27:44;148.30;;;99.05;;
43793;SDS011;29414;44.798;20.366;2022-10-12T02:32:03;161.63;;;102.63;;
43793;SDS011;29414;44.798;20.366;2022-10-12T02:36:08;162.13;;;100.30;;
43793;SDS011;29414;44.798;20.366;2022-10-12T02:40:12;161.98;;;101.30;;
43793;SDS011;29414;44.798;20.366;2022-10-12T02:44:15;162.07;;;102.72;;
43793;SDS011;29414;44.798;20.366;2022-10-12T02:48:18;165.48;;;104.05;;
43793;SDS011;29414;44.798;20.366;2022-10-12T02:52:19;148.15;;;95.18;;
43793;SDS011;29414;44.798;20.366;2022-10-12T02:56:19;157.45;;;100.13;;
43793;SDS011;29414;44.798;20.366;2022-10-12T03:00:20;126.78;;;88.45;;
43793;SDS011;29414;44.798;20.366;2022-10-12T03:04:20;121.43;;;86.40;;
43793;SDS011;29414;44.798;20.366;2022-10-12T03:08:20;142.68;;;96.65;;
43793;SDS011;29414;44.798;20.366;2022-10-12T03:12:21;130.55;;;92.55;;
43793;SDS011;29414;44.798;20.366;2022-10-12T03:16:21;120.30;;;89.68;;
43793;SDS011;29414;44.798;20.366;2022-10-12T03:20:21;115.13;;;85.40;;
43793;SDS011;29414;44.798;20.366;2022-10-12T03:24:22;147.90;;;94.45;;
43793;SDS011;29414;44.798;20.366;2022-10-12T03:28:22;144.27;;;92.57;;
43793;SDS011;29414;44.798;20.366;2022-10-12T03:32:22;142.80;;;96.50;;
43793;SDS011;29414;44.798;20.366;2022-10-12T03:36:22;156.00;;;100.18;;
43793;SDS011;29414;44.798;20.366;2022-10-12T03:40:23;148.27;;;96.55;;
43793;SDS011;29414;44.798;20.366;2022-10-12T03:44:23;149.40;;;97.38;;
43793;SDS011;29414;44.798;20.366;2022-10-12T03:48:23;154.80;;;98.82;;
43793;SDS011;29414;44.798;20.366;2022-10-12T03:52:24;166.60;;;100.05;;
43793;SDS011;29414;44.798;20.366;2022-10-12T03:56:24;157.38;;;99.88;;
43793;SDS011;29414;44.798;20.366;2022-10-12T04:00:25;175.02;;;102.35;;
43793;SDS011;29414;44.798;20.366;2022-10-12T04:04:25;138.93;;;93.80;;
43793;SDS011;29414;44.798;20.366;2022-10-12T04:08:25;160.93;;;99.60;;
43793;SDS011;29414;44.798;20.366;2022-10-12T04:12:26;142.40;;;93.78;;
43793;SDS011;29414;44.798;20.366;2022-10-12T04:16:26;133.75;;;91.40;;
43793;SDS011;29414;44.798;20.366;2022-10-12T04:20:26;115.43;;;83.60;;
43793;SDS011;29414;44.798;20.366;2022-10-12T04:24:27;145.63;;;95.63;;
43793;SDS011;29414;44.798;20.366;2022-10-12T04:28:27;142.55;;;95.97;;
43793;SDS011;29414;44.798;20.366;2022-10-12T04:32:27;117.10;;;83.57;;
43793;SDS011;29414;44.798;20.366;2022-10-12T04:36:28;116.85;;;86.43;;
43793;SDS011;29414;44.798;20.366;2022-10-12T04:40:28;129.15;;;88.82;;
43793;SDS011;29414;44.798;20.366;2022-10-12T04:44:28;126.47;;;84.22;;
43793;SDS011;29414;44.798;20.366;2022-10-12T04:48:29;118.70;;;86.32;;
43793;SDS011;29414;44.798;20.366;2022-10-12T04:52:29;124.25;;;85.30;;
43793;SDS011;29414;44.798;20.366;2022-10-12T04:56:29;116.43;;;81.97;;
43793;SDS011;29414;44.798;20.366;2022-10-12T05:00:29;101.25;;;78.45;;
43793;SDS011;29414;44.798;20.366;2022-10-12T05:04:30;109.97;;;79.45;;
43793;SDS011;29414;44.798;20.366;2022-10-12T05:08:30;137.52;;;91.57;;
43793;SDS011;29414;44.798;20.366;2022-10-12T05:12:30;128.75;;;86.75;;
43793;SDS011;29414;44.798;20.366;2022-10-12T05:16:31;117.80;;;83.38;;
43793;SDS011;29414;44.798;20.366;2022-10-12T05:20:31;118.28;;;86.70;;
43793;SDS011;29414;44.798;20.366;2022-10-12T05:24:31;113.60;;;82.00;;
43793;SDS011;29414;44.798;20.366;2022-10-12T05:28:32;146.30;;;92.20;;
43793;SDS011;29414;44.798;20.366;2022-10-12T05:32:32;115.57;;;78.28;;
43793;SDS011;29414;44.798;20.366;2022-10-12T05:36:33;120.63;;;85.93;;
43793;SDS011;29414;44.798;20.366;2022-10-12T05:40:33;128.82;;;85.45;;
43793;SDS011;29414;44.798;20.366;2022-10-12T05:44:33;125.35;;;86.88;;
43793;SDS011;29414;44.798;20.366;2022-10-12T05:48:33;142.52;;;93.72;;
43793;SDS011;29414;44.798;20.366;2022-10-12T05:52:34;120.20;;;84.60;;
43793;SDS011;29414;44.798;20.366;2022-10-12T05:56:35;105.85;;;80.72;;
43793;SDS011;29414;44.798;20.366;2022-10-12T06:00:35;118.28;;;82.38;;
43793;SDS011;29414;44.798;20.366;2022-10-12T06:04:35;120.70;;;83.65;;
43793;SDS011;29414;44.798;20.366;2022-10-12T06:08:35;114.13;;;82.05;;
43793;SDS011;29414;44.798;20.366;2022-10-12T06:12:36;123.88;;;87.60;;
43793;SDS011;29414;44.798;20.366;2022-10-12T06:16:36;107.78;;;77.78;;
43793;SDS011;29414;44.798;20.366;2022-10-12T06:20:36;120.05;;;84.05;;
43793;SDS011;29414;44.798;20.366;2022-10-12T06:24:37;116.38;;;79.88;;
43793;SDS011;29414;44.798;20.366;2022-10-12T06:28:37;108.57;;;76.93;;
43793;SDS011;29414;44.798;20.366;2022-10-12T06:32:37;102.95;;;77.75;;
43793;SDS011;29414;44.798;20.366;2022-10-12T06:36:38;94.88;;;74.13;;
43793;SDS011;29414;44.798;20.366;2022-10-12T06:40:38;99.68;;;74.40;;
43793;SDS011;29414;44.798;20.366;2022-10-12T06:44:38;92.43;;;72.25;;
43793;SDS011;29414;44.798;20.366;2022-10-12T06:48:38;93.18;;;70.00;;
43793;SDS011;29414;44.798;20.366;2022-10-12T06:52:39;87.88;;;69.47;;
43793;SDS011;29414;44.798;20.366;2022-10-12T06:56:39;81.75;;;66.18;;
43793;SDS011;29414;44.798;20.366;2022-10-12T07:00:39;81.05;;;64.75;;
43793;SDS011;29414;44.798;20.366;2022-10-12T07:04:40;68.22;;;59.92;;
43793;SDS011;29414;44.798;20.366;2022-10-12T07:08:40;71.97;;;61.03;;
43793;SDS011;29414;44.798;20.366;2022-10-12T07:12:41;85.07;;;66.70;;
43793;SDS011;29414;44.798;20.366;2022-10-12T07:16:41;69.70;;;60.88;;
43793;SDS011;29414;44.798;20.366;2022-10-12T07:20:41;82.57;;;65.68;;
43793;SDS011;29414;44.798;20.366;2022-10-12T07:24:42;73.38;;;64.03;;
43793;SDS011;29414;44.798;20.366;2022-10-12T07:28:42;79.97;;;64.25;;
43793;SDS011;29414;44.798;20.366;2022-10-12T07:32:42;73.53;;;63.13;;
43793;SDS011;29414;44.798;20.366;2022-10-12T07:36:45;69.95;;;60.30;;
43793;SDS011;29414;44.798;20.366;2022-10-12T07:40:45;77.20;;;64.10;;
43793;SDS011;29414;44.798;20.366;2022-10-12T07:44:46;71.32;;;59.60;;
43793;SDS011;29414;44.798;20.366;2022-10-12T07:48:47;74.53;;;62.10;;
43793;SDS011;29414;44.798;20.366;2022-10-12T07:52:47;65.57;;;56.85;;
43793;SDS011;29414;44.798;20.366;2022-10-12T07:56:48;76.40;;;63.88;;
43793;SDS011;29414;44.798;20.366;2022-10-12T08:00:48;68.35;;;59.53;;
43793;SDS011;29414;44.798;20.366;2022-10-12T08:04:48;61.97;;;55.20;;
43793;SDS011;29414;44.798;20.366;2022-10-12T08:08:49;61.22;;;53.42;;
43793;SDS011;29414;44.798;20.366;2022-10-12T08:12:49;70.03;;;60.30;;
43793;SDS011;29414;44.798;20.366;2022-10-12T08:16:50;56.10;;;48.83;;
43793;SDS011;29414;44.798;20.366;2022-10-12T08:20:50;54.13;;;48.40;;
43793;SDS011;29414;44.798;20.366;2022-10-12T08:24:50;63.13;;;54.92;;
43793;SDS011;29414;44.798;20.366;2022-10-12T08:28:51;59.50;;;51.35;;
43793;SDS011;29414;44.798;20.366;2022-10-12T08:32:52;56.50;;;50.45;;
43793;SDS011;29414;44.798;20.366;2022-10-12T08:36:52;53.17;;;47.25;;
43793;SDS011;29414;44.798;20.366;2022-10-12T08:40:55;58.60;;;47.78;;
43793;SDS011;29414;44.798;20.366;2022-10-12T08:45:18;54.45;;;47.55;;
43793;SDS011;29414;44.798;20.366;2022-10-12T08:49:21;49.42;;;43.85;;
43793;SDS011;29414;44.798;20.366;2022-10-12T08:53:27;49.40;;;44.13;;
43793;SDS011;29414;44.798;20.366;2022-10-12T08:57:30;49.72;;;44.58;;
43793;SDS011;29414;44.798;20.366;2022-10-12T09:14:33;49.53;;;42.95;;
43793;SDS011;29414;44.798;20.366;2022-10-12T09:18:32;42.45;;;38.08;;
43793;SDS011;29414;44.798;20.366;2022-10-12T09:22:33;41.55;;;37.00;;
43793;SDS011;29414;44.798;20.366;2022-10-12T09:26:35;39.30;;;35.17;;
43793;SDS011;29414;44.798;20.366;2022-10-12T09:30:36;39.53;;;35.17;;
43793;SDS011;29414;44.798;20.366;2022-10-12T09:34:40;43.20;;;38.97;;
43793;SDS011;29414;44.798;20.366;2022-10-12T09:38:41;45.13;;;40.05;;
43793;SDS011;29414;44.798;20.366;2022-10-12T09:42:42;42.78;;;38.22;;
43793;SDS011;29414;44.798;20.366;2022-10-12T09:46:48;45.03;;;34.85;;
43793;SDS011;29414;44.798;20.366;2022-10-12T09:50:56;36.42;;;32.67;;
43793;SDS011;29414;44.798;20.366;2022-10-12T09:54:59;37.92;;;32.40;;
43793;SDS011;29414;44.798;20.366;2022-10-12T09:58:59;33.67;;;30.17;;
43793;SDS011;29414;44.798;20.366;2022-10-12T10:03:01;37.63;;;33.92;;
43793;SDS011;29414;44.798;20.366;2022-10-12T10:07:22;36.70;;;32.90;;
43793;SDS011;29414;44.798;20.366;2022-10-12T10:11:24;40.58;;;35.97;;
43793;SDS011;29414;44.798;20.366;2022-10-12T10:15:26;38.50;;;34.40;;
43793;SDS011;29414;44.798;20.366;2022-10-12T10:19:27;37.38;;;33.45;;
43793;SDS011;29414;44.798;20.366;2022-10-12T10:23:38;40.65;;;32.90;;
43793;SDS011;29414;44.798;20.366;2022-10-12T10:27:40;37.65;;;33.65;;
43793;SDS011;29414;44.798;20.366;2022-10-12T10:31:41;35.13;;;31.55;;
43793;SDS011;29414;44.798;20.366;2022-10-12T10:35:51;31.45;;;28.17;;
43793;SDS011;29414;44.798;20.366;2022-10-12T10:39:53;37.10;;;33.17;;
43793;SDS011;29414;44.798;20.366;2022-10-12T10:43:53;38.28;;;34.40;;
43793;SDS011;29414;44.798;20.366;2022-10-12T10:47:54;37.30;;;33.30;;
43793;SDS011;29414;44.798;20.366;2022-10-12T10:52:00;34.17;;;30.63;;
43793;SDS011;29414;44.798;20.366;2022-10-12T10:56:06;39.60;;;33.03;;
43793;SDS011;29414;44.798;20.366;2022-10-12T11:00:10;31.50;;;27.88;;
43793;SDS011;29414;44.798;20.366;2022-10-12T11:04:14;30.75;;;27.70;;
43793;SDS011;29414;44.798;20.366;2022-10-12T11:08:20;31.77;;;28.17;;
43793;SDS011;29414;44.798;20.366;2022-10-12T11:25:09;32.92;;;29.42;;
43793;SDS011;29414;44.798;20.366;2022-10-12T11:29:07;33.75;;;28.73;;
43793;SDS011;29414;44.798;20.366;2022-10-12T11:33:18;52.13;;;43.65;;
43793;SDS011;29414;44.798;20.366;2022-10-12T11:37:21;50.25;;;45.33;;
43793;SDS011;29414;44.798;20.366;2022-10-12T11:41:44;46.67;;;42.08;;
43793;SDS011;29414;44.798;20.366;2022-10-12T11:45:45;45.67;;;41.25;;
43793;SDS011;29414;44.798;20.366;2022-10-12T11:58:06;45.17;;;37.95;;
43793;SDS011;29414;44.798;20.366;2022-10-12T12:19:08;50.88;;;40.50;;
43793;SDS011;29414;44.798;20.366;2022-10-12T12:22:54;52.17;;;38.17;;
43793;SDS011;29414;44.798;20.366;2022-10-12T12:26:56;39.67;;;34.83;;
43793;SDS011;29414;44.798;20.366;2022-10-12T12:30:56;43.58;;;36.05;;
43793;SDS011;29414;44.798;20.366;2022-10-12T12:34:59;50.33;;;37.80;;
43793;SDS011;29414;44.798;20.366;2022-10-12T12:39:00;44.75;;;36.58;;
43793;SDS011;29414;44.798;20.366;2022-10-12T12:47:21;47.85;;;40.00;;
43793;SDS011;29414;44.798;20.366;2022-10-12T12:51:35;43.63;;;38.38;;
43793;SDS011;29414;44.798;20.366;2022-10-12T13:12:20;41.30;;;36.92;;
43793;SDS011;29414;44.798;20.366;2022-10-12T13:20:33;44.15;;;39.13;;
43793;SDS011;29414;44.798;20.366;2022-10-12T13:24:39;42.10;;;37.60;;
43793;SDS011;29414;44.798;20.366;2022-10-12T13:28:40;47.72;;;39.17;;
43793;SDS011;29414;44.798;20.366;2022-10-12T13:33:02;43.17;;;37.00;;
43793;SDS011;29414;44.798;20.366;2022-10-12T13:37:03;44.45;;;39.47;;
43793;SDS011;29414;44.798;20.366;2022-10-12T13:41:08;44.85;;;40.30;;
43793;SDS011;29414;44.798;20.366;2022-10-12T13:45:14;46.92;;;40.58;;
43793;SDS011;29414;44.798;20.366;2022-10-12T13:49:16;45.38;;;40.53;;
43793;SDS011;29414;44.798;20.366;2022-10-12T13:53:17;48.30;;;41.85;;
43793;SDS011;29414;44.798;20.366;2022-10-12T14:01:46;50.90;;;43.58;;
43793;SDS011;29414;44.798;20.366;2022-10-12T14:05:46;37.03;;;33.13;;
43793;SDS011;29414;44.798;20.366;2022-10-12T14:09:48;35.65;;;31.70;;
43793;SDS011;29414;44.798;20.366;2022-10-12T14:13:50;32.90;;;29.52;;
43793;SDS011;29414;44.798;20.366;2022-10-12T14:17:51;37.35;;;29.77;;
43793;SDS011;29414;44.798;20.366;2022-10-12T14:21:51;33.67;;;28.63;;
43793;SDS011;29414;44.798;20.366;2022-10-12T14:25:55;35.72;;;31.77;;
43793;SDS011;29414;44.798;20.366;2022-10-12T14:29:56;36.42;;;29.60;;
43793;SDS011;29414;44.798;20.366;2022-10-12T14:38:41;35.65;;;30.70;;
43793;SDS011;29414;44.798;20.366;2022-10-12T14:42:42;36.35;;;28.05;;
43793;SDS011;29414;44.798;20.366;2022-10-12T14:46:53;34.35;;;28.95;;
43793;SDS011;29414;44.798;20.366;2022-10-12T14:50:54;33.53;;;27.70;;
43793;SDS011;29414;44.798;20.366;2022-10-12T14:54:55;51.58;;;29.02;;
43793;SDS011;29414;44.798;20.366;2022-10-12T14:58:56;34.30;;;28.17;;
43793;SDS011;29414;44.798;20.366;2022-10-12T15:02:56;32.90;;;29.20;;
43793;SDS011;29414;44.798;20.366;2022-10-12T15:06:57;29.85;;;26.55;;
43793;SDS011;29414;44.798;20.366;2022-10-12T15:10:57;29.92;;;26.60;;
43793;SDS011;29414;44.798;20.366;2022-10-12T15:14:59;37.17;;;27.30;;
43793;SDS011;29414;44.798;20.366;2022-10-12T15:18:59;36.63;;;28.77;;
43793;SDS011;29414;44.798;20.366;2022-10-12T15:23:00;29.95;;;26.90;;
43793;SDS011;29414;44.798;20.366;2022-10-12T15:27:01;34.85;;;28.40;;
43793;SDS011;29414;44.798;20.366;2022-10-12T15:31:01;31.75;;;27.52;;
43793;SDS011;29414;44.798;20.366;2022-10-12T15:35:35;43.78;;;27.08;;
43793;SDS011;29414;44.798;20.366;2022-10-12T15:39:29;43.63;;;28.42;;
43793;SDS011;29414;44.798;20.366;2022-10-12T15:43:29;34.47;;;29.88;;
43793;SDS011;29414;44.798;20.366;2022-10-12T15:47:30;38.38;;;29.38;;
43793;SDS011;29414;44.798;20.366;2022-10-12T15:51:31;33.28;;;29.42;;
43793;SDS011;29414;44.798;20.366;2022-10-12T15:55:32;38.28;;;28.15;;
43793;SDS011;29414;44.798;20.366;2022-10-12T15:59:32;42.33;;;28.95;;
43793;SDS011;29414;44.798;20.366;2022-10-12T16:03:33;41.58;;;28.63;;
43793;SDS011;29414;44.798;20.366;2022-10-12T16:07:33;39.72;;;28.08;;
43793;SDS011;29414;44.798;20.366;2022-10-12T16:11:33;43.42;;;29.77;;
43793;SDS011;29414;44.798;20.366;2022-10-12T16:15:34;40.80;;;28.17;;
43793;SDS011;29414;44.798;20.366;2022-10-12T16:19:34;38.55;;;27.70;;
43793;SDS011;29414;44.798;20.366;2022-10-12T16:23:35;36.70;;;29.08;;
43793;SDS011;29414;44.798;20.366;2022-10-12T16:27:36;49.10;;;30.10;;
43793;SDS011;29414;44.798;20.366;2022-10-12T16:31:36;42.08;;;29.05;;
43793;SDS011;29414;44.798;20.366;2022-10-12T16:35:39;39.35;;;28.38;;
43793;SDS011;29414;44.798;20.366;2022-10-12T16:39:40;35.03;;;30.83;;
43793;SDS011;29414;44.798;20.366;2022-10-12T16:43:41;43.17;;;31.50;;
43793;SDS011;29414;44.798;20.366;2022-10-12T16:47:41;35.85;;;29.20;;
43793;SDS011;29414;44.798;20.366;2022-10-12T16:51:42;42.42;;;30.92;;
43793;SDS011;29414;44.798;20.366;2022-10-12T16:55:42;33.63;;;29.88;;
43793;SDS011;29414;44.798;20.366;2022-10-12T16:59:42;41.33;;;29.77;;
43793;SDS011;29414;44.798;20.366;2022-10-12T17:03:43;33.63;;;28.33;;
43793;SDS011;29414;44.798;20.366;2022-10-12T17:07:43;31.25;;;28.02;;
43793;SDS011;29414;44.798;20.366;2022-10-12T17:11:43;33.25;;;29.00;;
43793;SDS011;29414;44.798;20.366;2022-10-12T17:15:44;35.47;;;27.80;;
43793;SDS011;29414;44.798;20.366;2022-10-12T17:19:44;44.95;;;34.88;;
43793;SDS011;29414;44.798;20.366;2022-10-12T17:23:44;39.75;;;30.58;;
43793;SDS011;29414;44.798;20.366;2022-10-12T17:27:45;45.95;;;32.58;;
43793;SDS011;29414;44.798;20.366;2022-10-12T17:31:45;38.90;;;33.05;;
43793;SDS011;29414;44.798;20.366;2022-10-12T17:35:49;35.90;;;31.58;;
43793;SDS011;29414;44.798;20.366;2022-10-12T17:39:49;40.67;;;31.70;;
43793;SDS011;29414;44.798;20.366;2022-10-12T17:43:49;42.65;;;33.65;;
43793;SDS011;29414;44.798;20.366;2022-10-12T17:47:49;41.63;;;34.08;;
43793;SDS011;29414;44.798;20.366;2022-10-12T17:51:50;40.53;;;32.70;;
43793;SDS011;29414;44.798;20.366;2022-10-12T17:55:50;42.70;;;32.70;;
43793;SDS011;29414;44.798;20.366;2022-10-12T17:59:51;41.53;;;35.08;;
43793;SDS011;29414;44.798;20.366;2022-10-12T18:03:51;41.55;;;34.33;;
43793;SDS011;29414;44.798;20.366;2022-10-12T18:07:54;41.72;;;35.00;;
43793;SDS011;29414;44.798;20.366;2022-10-12T18:12:05;42.92;;;35.78;;
43793;SDS011;29414;44.798;20.366;2022-10-12T18:16:11;47.63;;;36.67;;
43793;SDS011;29414;44.798;20.366;2022-10-12T18:20:29;44.58;;;36.58;;
43793;SDS011;29414;44.798;20.366;2022-10-12T18:24:32;43.72;;;37.35;;
43793;SDS011;29414;44.798;20.366;2022-10-12T18:28:45;38.88;;;33.97;;
43793;SDS011;29414;44.798;20.366;2022-10-12T18:32:55;44.83;;;36.53;;
43793;SDS011;29414;44.798;20.366;2022-10-12T18:36:57;41.63;;;34.55;;
43793;SDS011;29414;44.798;20.366;2022-10-12T18:41:04;53.13;;;41.85;;
43793;SDS011;29414;44.798;20.366;2022-10-12T18:45:04;45.03;;;38.08;;
43793;SDS011;29414;44.798;20.366;2022-10-12T18:49:05;44.63;;;39.22;;
43793;SDS011;29414;44.798;20.366;2022-10-12T18:53:07;43.95;;;36.97;;
43793;SDS011;29414;44.798;20.366;2022-10-12T18:57:07;47.15;;;39.03;;
43793;SDS011;29414;44.798;20.366;2022-10-12T19:01:11;46.45;;;36.55;;
43793;SDS011;29414;44.798;20.366;2022-10-12T19:05:11;41.38;;;37.00;;
43793;SDS011;29414;44.798;20.366;2022-10-12T19:09:12;51.20;;;40.63;;
43793;SDS011;29414;44.798;20.366;2022-10-12T19:13:13;47.58;;;37.80;;
43793;SDS011;29414;44.798;20.366;2022-10-12T19:17:13;46.67;;;38.38;;
43793;SDS011;29414;44.798;20.366;2022-10-12T19:21:15;46.17;;;37.03;;
43793;SDS011;29414;44.798;20.366;2022-10-12T19:25:16;46.40;;;38.47;;
43793;SDS011;29414;44.798;20.366;2022-10-12T19:29:16;49.95;;;38.65;;
43793;SDS011;29414;44.798;20.366;2022-10-12T19:33:17;50.35;;;42.22;;
43793;SDS011;29414;44.798;20.366;2022-10-12T19:37:20;52.65;;;40.55;;
43793;SDS011;29414;44.798;20.366;2022-10-12T19:41:21;51.72;;;44.08;;
43793;SDS011;29414;44.798;20.366;2022-10-12T19:45:21;45.50;;;40.42;;
43793;SDS011;29414;44.798;20.366;2022-10-12T19:49:24;45.60;;;40.17;;
43793;SDS011;29414;44.798;20.366;2022-10-12T19:53:28;50.25;;;41.22;;
43793;SDS011;29414;44.798;20.366;2022-10-12T19:57:28;53.88;;;43.67;;
43793;SDS011;29414;44.798;20.366;2022-10-12T20:01:32;46.55;;;41.38;;
43793;SDS011;29414;44.798;20.366;2022-10-12T20:05:34;56.67;;;46.35;;
43793;SDS011;29414;44.798;20.366;2022-10-12T20:09:34;55.88;;;44.35;;
43793;SDS011;29414;44.798;20.366;2022-10-12T20:13:40;52.80;;;43.55;;
43793;SDS011;29414;44.798;20.366;2022-10-12T20:17:56;51.58;;;43.33;;
43793;SDS011;29414;44.798;20.366;2022-10-12T20:22:00;59.50;;;48.20;;
43793;SDS011;29414;44.798;20.366;2022-10-12T20:26:02;50.50;;;45.00;;
43793;SDS011;29414;44.798;20.366;2022-10-12T20:30:04;52.45;;;46.35;;
43793;SDS011;29414;44.798;20.366;2022-10-12T20:34:10;85.13;;;66.07;;
43793;SDS011;29414;44.798;20.366;2022-10-12T20:38:13;65.43;;;49.67;;
43793;SDS011;29414;44.798;20.366;2022-10-12T20:42:22;60.45;;;50.25;;
43793;SDS011;29414;44.798;20.366;2022-10-12T20:46:29;60.35;;;47.05;;
43793;SDS011;29414;44.798;20.366;2022-10-12T20:50:38;54.60;;;47.60;;
43793;SDS011;29414;44.798;20.366;2022-10-12T20:54:41;54.75;;;47.13;;
43793;SDS011;29414;44.798;20.366;2022-10-12T20:58:45;58.90;;;47.70;;
43793;SDS011;29414;44.798;20.366;2022-10-12T21:02:45;53.30;;;45.78;;
43793;SDS011;29414;44.798;20.366;2022-10-12T21:06:45;58.38;;;48.78;;
43793;SDS011;29414;44.798;20.366;2022-10-12T21:10:45;53.15;;;46.63;;
43793;SDS011;29414;44.798;20.366;2022-10-12T21:14:46;54.47;;;44.25;;
43793;SDS011;29414;44.798;20.366;2022-10-12T21:18:46;53.33;;;47.30;;
43793;SDS011;29414;44.798;20.366;2022-10-12T21:22:47;56.10;;;48.03;;
43793;SDS011;29414;44.798;20.366;2022-10-12T21:26:50;55.60;;;49.35;;
43793;SDS011;29414;44.798;20.366;2022-10-12T21:30:50;56.08;;;47.50;;
43793;SDS011;29414;44.798;20.366;2022-10-12T21:34:51;60.40;;;51.80;;
43793;SDS011;29414;44.798;20.366;2022-10-12T21:38:52;56.78;;;50.30;;
43793;SDS011;29414;44.798;20.366;2022-10-12T21:42:52;57.80;;;49.92;;
43793;SDS011;29414;44.798;20.366;2022-10-12T21:46:53;54.05;;;48.17;;
43793;SDS011;29414;44.798;20.366;2022-10-12T21:50:54;56.33;;;48.30;;
43793;SDS011;29414;44.798;20.366;2022-10-12T21:54:55;57.67;;;48.85;;
43793;SDS011;29414;44.798;20.366;2022-10-12T21:58:56;53.03;;;46.92;;
43793;SDS011;29414;44.798;20.366;2022-10-12T22:02:57;54.42;;;47.50;;
43793;SDS011;29414;44.798;20.366;2022-10-12T22:06:57;52.30;;;46.47;;
43793;SDS011;29414;44.798;20.366;2022-10-12T22:11:08;56.13;;;50.05;;
43793;SDS011;29414;44.798;20.366;2022-10-12T22:15:09;57.10;;;50.95;;
43793;SDS011;29414;44.798;20.366;2022-10-12T22:19:10;58.50;;;50.33;;
43793;SDS011;29414;44.798;20.366;2022-10-12T22:23:13;75.03;;;54.85;;
43793;SDS011;29414;44.798;20.366;2022-10-12T22:27:13;67.47;;;54.55;;
43793;SDS011;29414;44.798;20.366;2022-10-12T22:31:14;63.60;;;53.42;;
43793;SDS011;29414;44.798;20.366;2022-10-12T22:35:15;61.20;;;51.15;;
43793;SDS011;29414;44.798;20.366;2022-10-12T22:39:15;60.60;;;51.38;;
43793;SDS011;29414;44.798;20.366;2022-10-12T22:43:16;59.50;;;51.58;;
43793;SDS011;29414;44.798;20.366;2022-10-12T22:47:17;60.17;;;50.58;;
43793;SDS011;29414;44.798;20.366;2022-10-12T22:55:46;52.70;;;46.90;;
43793;SDS011;29414;44.798;20.366;2022-10-12T22:59:48;54.25;;;48.47;;
43793;SDS011;29414;44.798;20.366;2022-10-12T23:03:48;55.20;;;43.83;;
43793;SDS011;29414;44.798;20.366;2022-10-12T23:07:48;60.75;;;52.13;;
43793;SDS011;29414;44.798;20.366;2022-10-12T23:11:49;62.22;;;50.38;;
43793;SDS011;29414;44.798;20.366;2022-10-12T23:15:49;62.13;;;50.53;;
43793;SDS011;29414;44.798;20.366;2022-10-12T23:19:50;58.03;;;49.80;;
43793;SDS011;29414;44.798;20.366;2022-10-12T23:23:50;58.22;;;47.72;;
43793;SDS011;29414;44.798;20.366;2022-10-12T23:27:50;62.53;;;51.35;;
43793;SDS011;29414;44.798;20.366;2022-10-12T23:31:51;58.20;;;47.90;;
43793;SDS011;29414;44.798;20.366;2022-10-12T23:35:55;59.80;;;51.45;;
43793;SDS011;29414;44.798;20.366;2022-10-12T23:39:55;54.90;;;47.97;;
43793;SDS011;29414;44.798;20.366;2022-10-12T23:43:56;53.63;;;47.83;;
43793;SDS011;29414;44.798;20.366;2022-10-12T23:47:56;47.97;;;42.28;;
43793;SDS011;29414;44.798;20.366;2022-10-12T23:51:56;51.50;;;45.95;;
43793;SDS011;29414;44.798;20.366;2022-10-12T23:55:56;69.03;;;51.33;;
43793;SDS011;29414;44.798;20.366;2022-10-12T23:59:57;55.67;;;47.35;;
